• Join FlightAware (Why Join?)
  • Login
  • US Flag 
01:57AM EDT


 

Airport Tracker/Info


-or-


 

Live Flight TrackerFlight Track Log ✈ N72WP ✈ 28-Dec-2013 ✈ KISM - KPDK

Flight Track Log - Related Links

Times and Time Zones

All times are in EST time to prevent confusion due to time zone crossing. See the N72WP flight status page for this flight to view local times or setup timezone preferences in your user account.

Time Position Orientation Groundspeed Altitude Reporting Facility
EST Latitude Longitude Course Direction KTS MPH feet Rate Location/Type
12:40PM 28.2833 -81.4333 221° Southwest 84 97 400  Level Orlando TRACON
12:42PM 28.2500 -81.4667 221° Southwest 131 151 1,800 840 Climbing Orlando TRACON
12:43PM 28.2500 -81.5000 270° West 122 140 2,700 780 Climbing Orlando TRACON
12:44PM 28.2500 -81.5500 270° West 121 139 3,500 780 Climbing Orlando TRACON
12:45PM 28.2833 -81.5667 336° Northwest 129 148 4,300 840 Climbing Orlando TRACON
12:46PM 28.3000 -81.6000 300° West 127 146 5,200 840 Climbing Orlando TRACON
12:47PM 28.3167 -81.6333 300° West 122 140 6,000 780 Climbing Orlando TRACON
12:48PM 28.3500 -81.6500 336° Northwest 126 145 6,800 720 Climbing Orlando TRACON
12:49PM 28.3833 -81.6833 319° Northwest 131 151 7,500 780 Climbing Orlando TRACON
12:50PM 28.4000 -81.7000 319° Northwest 130 150 8,400 840 Climbing Orlando TRACON
12:51PM 28.4333 -81.7333 319° Northwest 128 147 9,200 720 Climbing Orlando TRACON
12:52PM 28.4667 -81.7667 319° Northwest 129 148 10,000 360 Climbing Orlando TRACON
12:53PM 28.5000 -81.8000 319° Northwest 172 198 10,000  Level Orlando TRACON
12:54PM 28.5333 -81.8333 319° Northwest 179 206 10,000  Level Orlando TRACON
12:55PM 28.5736 -81.8808 314° West 186 214 10,000  Level Jacksonville Center
12:56PM 28.6136 -81.9183 321° Northwest 188 216 10,000 -60 Level Jacksonville Center
12:57PM 28.6536 -81.9558 321° Northwest 188 216 9,900 -60 Descending Jacksonville Center
12:58PM 28.7061 -81.9861 333° Northwest 198 228 9,900  Level Jacksonville Center
01:00PM 28.8086 -82.0206 343° North 192 221 9,900  Level Jacksonville Center
01:01PM 28.8714 -82.0414 344° North 193 222 9,900  Level Jacksonville Center
01:02PM 28.9214 -82.0600 342° North 191 220 9,900  Level Jacksonville Center
01:04PM 28.9717 -82.0761 344° North 189 217 9,900  Level Jacksonville Center
01:05PM 29.0197 -82.0947 341° North 188 216 9,900  Level Jacksonville Center
01:06PM 29.0742 -82.1156 342° North 189 217 9,900  Level Jacksonville Center
01:07PM 29.1264 -82.1319 345° North 189 217 9,900  Level Jacksonville Center
01:08PM 29.1767 -82.1506 342° North 188 216 9,900  Level Jacksonville Center
01:09PM 29.2247 -82.1669 343° North 190 219 9,900  Level Jacksonville Center
01:10PM 29.2833 -82.1856 345° North 192 221 9,900  Level Jacksonville Center
01:11PM 29.3336 -82.2064 340° North 193 222 9,900  Level Jacksonville Center
01:12PM 29.3836 -82.2228 344° North 193 222 9,900  Level Jacksonville Center
01:13PM 29.4381 -82.2417 343° North 197 227 9,900  Level Jacksonville Center
01:14PM 29.4903 -82.2603 343° North 195 224 9,900  Level Jacksonville Center
01:15PM 29.5406 -82.2792 342° North 194 223 9,900  Level Jacksonville Center
01:16PM 29.6222 -82.3050 345° North 206 237 9,900  Level Jacksonville Center
01:17PM 29.6744 -82.3236 343° North 206 237 9,900  Level Jacksonville Center
01:18PM 29.7267 -82.3425 343° North 201 231 9,900  Level Jacksonville Center
01:19PM 29.7789 -82.3614 343° North 201 231 9,900  Level Jacksonville Center
01:20PM 29.8311 -82.3803 343° North 196 226 9,900  Level Jacksonville Center
01:21PM 29.8836 -82.3967 345° North 196 226 9,900  Level Jacksonville Center
01:22PM 29.9358 -82.4156 343° North 196 226 9,900  Level Jacksonville Center
01:23PM 29.9900 -82.4344 343° North 196 226 9,900  Level Jacksonville Center
01:24PM 30.0361 -82.4536 340° North 196 226 9,900  Level Jacksonville Center
01:25PM 30.0864 -82.4725 342° North 196 226 9,900  Level Jacksonville Center
01:26PM 30.1386 -82.4914 343° North 191 220 9,900  Level Jacksonville Center
01:27PM 30.1908 -82.5106 342° North 191 220 9,900  Level Jacksonville Center
01:28PM 30.2408 -82.5294 342° North 186 214 9,900  Level Jacksonville Center
01:29PM 30.2953 -82.5486 343° North 191 220 9,900  Level Jacksonville Center
01:30PM 30.3456 -82.5678 342° North 191 220 9,900  Level Jacksonville Center
01:31PM 30.3808 -82.5794 344° North 198 228 9,900  Level Jacksonville Center
01:31PM 30.3997 -82.5867 342° North 191 220 9,900  Level Jacksonville Center
01:32PM 30.4436 -82.6033 342° North 201 231 9,900  Level Jacksonville Center
01:32PM 30.4519 -82.6058 346° North 191 220 9,900  Level Jacksonville Center
01:33PM 30.4958 -82.6225 342° North 201 231 9,900  Level Jacksonville Center
01:33PM 30.5064 -82.6250 348° North 191 220 9,900  Level Jacksonville Center
01:34PM 30.5522 -82.6417 343° North 202 232 9,900  Level Jacksonville Center
01:34PM 30.5628 -82.6489 329° Northwest 191 220 9,900  Level Jacksonville Center
01:35PM 30.6003 -82.6608 345° North 201 231 9,900  Level Jacksonville Center
01:35PM 30.6128 -82.6633 350° North 191 220 9,900  Level Jacksonville Center
01:36PM 30.6547 -82.6825 339° North 201 231 9,900  Level Jacksonville Center
01:36PM 30.6653 -82.6847 350° North 191 220 9,900  Level Jacksonville Center
01:37PM 30.7069 -82.6992 343° North 201 231 9,900  Level Jacksonville Center
01:37PM 30.7175 -82.7017 348° North 191 220 9,900  Level Jacksonville Center
01:38PM 30.7611 -82.7208 339° North 199 229 9,900  Level Jacksonville Center
01:38PM 30.7739 -82.7233 350° North 191 220 9,900  Level Jacksonville Center
01:39PM 30.8092 -82.7378 341° North 201 231 9,900  Level Jacksonville Center
01:39PM 30.8239 -82.7425 345° North 191 220 9,900  Level Jacksonville Center
01:40PM 30.8636 -82.7594 340° North 199 229 9,900  Level Jacksonville Center
01:40PM 30.8783 -82.7619 352° North 191 220 9,900  Level Jacksonville Center
01:41PM 30.9158 -82.7764 342° North 200 230 9,900  Level Jacksonville Center
01:42PM 30.9722 -82.7933 346° North 203 234 9,900  Level Jacksonville Center
01:43PM 31.0244 -82.8150 340° North 205 236 9,900  Level Jacksonville Center
01:44PM 31.0808 -82.8344 344° North 203 234 9,900  Level Jacksonville Center
01:45PM 31.1392 -82.8586 340° North 199 229 9,900  Level Jacksonville Center
01:46PM 31.1853 -82.8756 343° North 198 228 9,900  Level Jacksonville Center
01:46PM 31.1936 -82.8756 360° North 199 229 9,900  Level Jacksonville Center
01:47PM 31.2417 -82.8925 343° North 197 227 9,900  Level Jacksonville Center
01:47PM 31.2436 -82.8950 312° West 199 229 9,900  Level Jacksonville Center
01:48PM 31.2958 -82.9169 340° North 199 229 9,900  Level Jacksonville Center
01:48PM 31.3000 -82.9169 360° North 198 228 9,900  Level Jacksonville Center
01:49PM 31.3461 -82.9314 345° North 213 245 9,900  Level Jacksonville Center
01:50PM 31.3981 -82.9533 340° North 219 252 9,900  Level Jacksonville Center
01:51PM 31.4503 -82.9731 342° North 207 238 9,900  Level Jacksonville Center
01:52PM 31.5025 -82.9900 345° North 202 232 9,900  Level Jacksonville Center
01:53PM 31.5547 -83.0097 342° North 197 227 9,900  Level Jacksonville Center
01:54PM 31.6069 -83.0292 342° North 192 221 9,900  Level Jacksonville Center
01:55PM 31.6569 -83.0489 341° North 192 221 9,900  Level Jacksonville Center
01:56PM 31.7092 -83.0683 342° North 192 221 9,900  Level Jacksonville Center
01:57PM 31.7656 -83.0881 343° North 192 221 9,900  Level Jacksonville Center
01:58PM 31.8178 -83.1078 342° North 192 221 9,900  Level Jacksonville Center
01:59PM 31.8719 -83.1275 343° North 197 227 9,900  Level Jacksonville Center
02:00PM 31.9261 -83.1494 341° North 197 227 9,900  Level Jacksonville Center
02:01PM 31.9803 -83.1694 343° North 202 232 9,900  Level Jacksonville Center
02:03PM 32.1000 -83.2167 342° North 202 232 10,000  Climbing Atlanta TRACON
02:04PM 32.1667 -83.2333 348° North 201 231 10,000  Level Atlanta TRACON
02:05PM 32.2167 -83.2667 331° Northwest 201 231 10,000  Level Atlanta TRACON
02:06PM 32.2833 -83.2833 348° North 201 231 10,000  Level Atlanta TRACON
02:07PM 32.3333 -83.3000 344° North 202 232 10,000  Level Atlanta TRACON
02:08PM 32.3833 -83.3167 344° North 202 232 10,000  Level Atlanta TRACON
02:09PM 32.4333 -83.3333 344° North 201 231 10,000  Level Atlanta TRACON
02:11PM 32.5000 -83.3500 348° North 198 228 10,000  Level Atlanta TRACON
02:12PM 32.5500 -83.3667 344° North 201 231 10,000  Level Atlanta TRACON
02:13PM 32.6000 -83.3833 344° North 200 230 10,000  Level Atlanta TRACON
02:14PM 32.6500 -83.4167 331° Northwest 202 232 10,000  Level Atlanta TRACON
02:14PM 32.7000 -83.4333 344° North 202 232 10,000  Level Atlanta TRACON
02:15PM 32.7667 -83.4500 348° North 202 232 10,000  Level Atlanta TRACON
02:16PM 32.8167 -83.4667 344° North 202 232 10,000  Level Atlanta TRACON
02:17PM 32.8667 -83.4833 344° North 204 235 10,000  Level Atlanta TRACON
02:19PM 32.9333 -83.5000 348° North 204 235 10,000  Level Atlanta TRACON
02:19PM 32.9833 -83.5167 344° North 203 234 10,000 -60 Level Atlanta TRACON
02:20PM 33.0333 -83.5333 344° North 199 229 9,900 -420 Descending Atlanta TRACON
02:21PM 33.0667 -83.5500 337° Northwest 199 229 9,300 -660 Descending Atlanta TRACON
02:22PM 33.1333 -83.5667 348° North 197 227 8,700 -600 Descending Atlanta TRACON
02:23PM 33.1833 -83.5833 344° North 199 229 8,200 -600 Descending Atlanta TRACON
02:24PM 33.2333 -83.6167 331° Northwest 202 232 7,600 -600 Descending Atlanta TRACON
02:25PM 33.2833 -83.6333 344° North 201 231 7,100 -600 Descending Atlanta TRACON
02:26PM 33.3500 -83.6500 348° North 204 235 6,400 -600 Descending Atlanta TRACON
02:27PM 33.4000 -83.6667 344° North 190 219 6,000 -360 Descending Atlanta TRACON
02:28PM 33.4333 -83.7000 320° Northwest 175 201 5,700 -420 Descending Atlanta TRACON
02:29PM 33.4667 -83.7500 309° West 178 205 5,200 -480 Descending Atlanta TRACON
02:30PM 33.5000 -83.7833 320° Northwest 174 200 4,800 -540 Descending Atlanta TRACON
02:31PM 33.5333 -83.8333 309° West 177 204 4,200 -480 Descending Atlanta TRACON
02:32PM 33.5667 -83.8667 320° Northwest 171 197 3,900 -120 Descending Atlanta TRACON
02:33PM 33.6000 -83.9167 309° West 177 204 4,000  Climbing Atlanta TRACON
02:34PM 33.6333 -83.9667 309° West 176 203 4,000 -240 Level Atlanta TRACON
02:35PM 33.6500 -84.0000 301° West 169 194 3,600 -600 Descending Atlanta TRACON
02:36PM 33.6833 -84.0500 309° West 179 206 2,900 -360 Descending Atlanta TRACON
02:37PM 33.7167 -84.0833 320° Northwest 155 178 2,900  Level Atlanta TRACON
02:38PM 33.7500 -84.1333 309° West 152 175 2,900  Level Atlanta TRACON
02:39PM 33.7833 -84.1667 320° Northwest 154 177 2,900  Level Atlanta TRACON
02:40PM 33.8000 -84.2167 292° West 158 182 2,900  Level Atlanta TRACON
02:41PM 33.8333 -84.2500 320° Northwest 141 162 2,900 -300 Level Atlanta TRACON
02:42PM 33.8333 -84.2833 270° West 113 130 2,400 -720 Descending Atlanta TRACON
02:43PM 33.8500 -84.3167 301° West 96 110 1,500 -900 Descending Atlanta TRACON
02:45PM 33.8667 -84.3000 314° West  Level FlightAware Approximate
02:52PM 33.8756 -84.3020 314° West  Level Estimated